DLH62L KLAX-KPHX
Flight info
| Callsign | DLH62L |
|---|---|
| Flight time | 0h 56m |
| Altitude | 35000 |
| Route | DOTSS2 CNERY BLH HYDRR1 |
| Aircraft | A320/M-SDE3FGHIRWY/LB1 |
Departure
| Time | 2026-05-04 08:08 |
|---|---|
| Airport | Los Angeles International Airport (KLAX) |
Arrival
| Time | 2026-05-04 09:05 |
|---|---|
| Airport | Phoenix Sky Harbor International Airport (KPHX) |
| Time | Latitude | Longitude | Altitude | Speed | Heading |
|---|---|---|---|---|---|
| 2026-05-04 07:49 | 33.94021 | -118.41071 | 126 ft | 0 kts | 83° |
| 2026-05-04 07:59 | 33.94017 | -118.41104 | 131 ft | 3 kts | 87° |
| 2026-05-04 07:59 | 33.94016 | -118.41125 | 123 ft | 2 kts | 91° |
| 2026-05-04 07:59 | 33.94015 | -118.41142 | 123 ft | 2 kts | 94° |
| 2026-05-04 08:00 | 33.94016 | -118.41158 | 126 ft | 2 kts | 92° |
| 2026-05-04 08:00 | 33.94019 | -118.41173 | 126 ft | 2 kts | 107° |
| 2026-05-04 08:00 | 33.94025 | -118.41184 | 121 ft | 2 kts | 165° |
| 2026-05-04 08:02 | 33.93889 | -118.41165 | 123 ft | 21 kts | 167° |
| 2026-05-04 08:02 | 33.93857 | -118.41023 | 126 ft | 18 kts | 86° |
| 2026-05-04 08:02 | 33.93870 | -118.40877 | 123 ft | 17 kts | 82° |
| 2026-05-04 08:03 | 33.93885 | -118.40745 | 123 ft | 15 kts | 82° |
| 2026-05-04 08:03 | 33.93898 | -118.40619 | 121 ft | 17 kts | 84° |
| 2026-05-04 08:03 | 33.93913 | -118.40450 | 126 ft | 24 kts | 84° |
| 2026-05-04 08:03 | 33.93938 | -118.40236 | 122 ft | 27 kts | 84° |
| 2026-05-04 08:04 | 33.93960 | -118.40005 | 124 ft | 29 kts | 83° |
| 2026-05-04 08:04 | 33.93981 | -118.39814 | 126 ft | 18 kts | 83° |
| 2026-05-04 08:04 | 33.93995 | -118.39659 | 126 ft | 23 kts | 84° |
| 2026-05-04 08:04 | 33.94018 | -118.39435 | 124 ft | 29 kts | 83° |
| 2026-05-04 08:05 | 33.94043 | -118.39189 | 124 ft | 30 kts | 83° |
| 2026-05-04 08:05 | 33.94062 | -118.38931 | 126 ft | 32 kts | 82° |
| 2026-05-04 08:05 | 33.94089 | -118.38658 | 124 ft | 33 kts | 83° |
| 2026-05-04 08:05 | 33.94113 | -118.38398 | 121 ft | 22 kts | 93° |
| 2026-05-04 08:06 | 33.94003 | -118.38325 | 123 ft | 19 kts | 171° |
| 2026-05-04 08:06 | 33.93950 | -118.38379 | 124 ft | 1 kts | 280° |
| 2026-05-04 08:06 | 33.93948 | -118.38388 | 125 ft | 5 kts | 263° |
| 2026-05-04 08:06 | 33.93913 | -118.38718 | 126 ft | 77 kts | 263° |
| 2026-05-04 08:08 | 33.91614 | -118.48273 | 2992 ft | 245 kts | 231° |
| 2026-05-04 08:08 | 33.90523 | -118.49907 | 3818 ft | 255 kts | 229° |
| 2026-05-04 08:10 | 33.77791 | -118.54263 | 10538 ft | 295 kts | 168° |
| 2026-05-04 08:11 | 33.75729 | -118.53700 | 11035 ft | 309 kts | 168° |
| 2026-05-04 08:11 | 33.71558 | -118.52116 | 12538 ft | 325 kts | 152° |
| 2026-05-04 08:11 | 33.69793 | -118.50370 | 13308 ft | 336 kts | 135° |
| 2026-05-04 08:12 | 33.68509 | -118.47968 | 14035 ft | 350 kts | 117° |
| 2026-05-04 08:12 | 33.67671 | -118.45191 | 14674 ft | 356 kts | 114° |
| 2026-05-04 08:12 | 33.66846 | -118.42370 | 15319 ft | 361 kts | 114° |
| 2026-05-04 08:12 | 33.66003 | -118.39514 | 15956 ft | 365 kts | 115° |
| 2026-05-04 08:13 | 33.65156 | -118.36619 | 16567 ft | 371 kts | 113° |
| 2026-05-04 08:13 | 33.64577 | -118.33557 | 17200 ft | 382 kts | 103° |
| 2026-05-04 08:13 | 33.64435 | -118.30331 | 17820 ft | 392 kts | 95° |
| 2026-05-04 08:13 | 33.64449 | -118.27084 | 18409 ft | 397 kts | 95° |
| 2026-05-04 08:14 | 33.64460 | -118.23709 | 18926 ft | 402 kts | 95° |
| 2026-05-04 08:14 | 33.64467 | -118.20330 | 19401 ft | 408 kts | 95° |
| 2026-05-04 08:14 | 33.64468 | -118.16947 | 19875 ft | 414 kts | 96° |
| 2026-05-04 08:16 | 33.64439 | -117.91638 | 23111 ft | 452 kts | 96° |
| 2026-05-04 08:16 | 33.64428 | -117.87837 | 23520 ft | 458 kts | 96° |
| 2026-05-04 08:16 | 33.64416 | -117.83991 | 23894 ft | 463 kts | 96° |
| 2026-05-04 08:17 | 33.64252 | -117.80133 | 24251 ft | 462 kts | 104° |
| 2026-05-04 08:17 | 33.63647 | -117.76366 | 24608 ft | 458 kts | 113° |
| 2026-05-04 08:17 | 33.62742 | -117.72695 | 24932 ft | 460 kts | 115° |
| 2026-05-04 08:17 | 33.61819 | -117.69004 | 25295 ft | 464 kts | 115° |
| 2026-05-04 08:19 | 33.55198 | -117.42239 | 27736 ft | 492 kts | 114° |
| 2026-05-04 08:19 | 33.54215 | -117.38290 | 28040 ft | 496 kts | 114° |
| 2026-05-04 08:20 | 33.53220 | -117.34315 | 28390 ft | 499 kts | 114° |
| 2026-05-04 08:20 | 33.52216 | -117.30315 | 28714 ft | 503 kts | 114° |
| 2026-05-04 08:20 | 33.51222 | -117.26278 | 29039 ft | 509 kts | 111° |
| 2026-05-04 08:20 | 33.50569 | -117.22066 | 29356 ft | 520 kts | 101° |
| 2026-05-04 08:21 | 33.50404 | -117.17702 | 29671 ft | 528 kts | 94° |
| 2026-05-04 08:21 | 33.50370 | -117.13296 | 29996 ft | 531 kts | 95° |
| 2026-05-04 08:21 | 33.50319 | -117.08864 | 30270 ft | 534 kts | 95° |
| 2026-05-04 08:21 | 33.50255 | -117.04402 | 30543 ft | 537 kts | 95° |
| 2026-05-04 08:22 | 33.50181 | -116.99914 | 30812 ft | 539 kts | 95° |
| 2026-05-04 08:22 | 33.50107 | -116.95409 | 31073 ft | 542 kts | 95° |
| 2026-05-04 08:24 | 33.49599 | -116.63517 | 33256 ft | 549 kts | 95° |
| 2026-05-04 08:24 | 33.49518 | -116.58952 | 33572 ft | 549 kts | 95° |
| 2026-05-04 08:24 | 33.49438 | -116.54384 | 33886 ft | 549 kts | 95° |
| 2026-05-04 08:24 | 33.49355 | -116.49803 | 34155 ft | 550 kts | 95° |
| 2026-05-04 08:25 | 33.49271 | -116.45231 | 34495 ft | 549 kts | 94° |
| 2026-05-04 08:25 | 33.49188 | -116.40659 | 34789 ft | 549 kts | 94° |
| 2026-05-04 08:25 | 33.49071 | -116.33091 | 34892 ft | 542 kts | 94° |
| 2026-05-04 08:27 | 33.50344 | -115.97477 | 34867 ft | 537 kts | 68° |
| 2026-05-04 08:28 | 33.52850 | -115.89037 | 34857 ft | 538 kts | 69° |
| 2026-05-04 08:28 | 33.55314 | -115.80578 | 34856 ft | 538 kts | 69° |
| 2026-05-04 08:29 | 33.57762 | -115.72111 | 34855 ft | 537 kts | 69° |
| 2026-05-04 08:31 | 33.62020 | -115.37312 | 34841 ft | 533 kts | 96° |
| 2026-05-04 08:33 | 33.60652 | -115.01869 | 34861 ft | 532 kts | 96° |
| 2026-05-04 08:35 | 33.58554 | -114.70680 | 32495 ft | 532 kts | 108° |
| 2026-05-04 08:35 | 33.57720 | -114.66386 | 32036 ft | 526 kts | 108° |
| 2026-05-04 08:35 | 33.56895 | -114.62129 | 31484 ft | 522 kts | 108° |
| 2026-05-04 08:35 | 33.56077 | -114.57908 | 30979 ft | 517 kts | 108° |
| 2026-05-04 08:37 | 33.51303 | -114.33459 | 27960 ft | 487 kts | 109° |
| 2026-05-04 08:37 | 33.50529 | -114.29545 | 27619 ft | 478 kts | 109° |
| 2026-05-04 08:37 | 33.49765 | -114.25691 | 27096 ft | 474 kts | 109° |
| 2026-05-04 08:38 | 33.49005 | -114.21874 | 26699 ft | 467 kts | 109° |
| 2026-05-04 08:38 | 33.48259 | -114.18109 | 26188 ft | 464 kts | 109° |
| 2026-05-04 08:38 | 33.47517 | -114.14379 | 25816 ft | 456 kts | 109° |
| 2026-05-04 08:40 | 33.42637 | -113.90013 | 23740 ft | 405 kts | 109° |
| 2026-05-04 08:40 | 33.41979 | -113.86748 | 23537 ft | 402 kts | 109° |
| 2026-05-04 08:40 | 33.41326 | -113.83508 | 23294 ft | 399 kts | 109° |
| 2026-05-04 08:41 | 33.40679 | -113.80289 | 23048 ft | 396 kts | 109° |
| 2026-05-04 08:41 | 33.40035 | -113.77093 | 22803 ft | 394 kts | 109° |
| 2026-05-04 08:41 | 33.39392 | -113.73916 | 22542 ft | 392 kts | 109° |
| 2026-05-04 08:41 | 33.38750 | -113.70755 | 22275 ft | 389 kts | 109° |
| 2026-05-04 08:42 | 33.38110 | -113.67612 | 22025 ft | 388 kts | 109° |
| 2026-05-04 08:42 | 33.37475 | -113.64486 | 21770 ft | 386 kts | 109° |
| 2026-05-04 08:42 | 33.36845 | -113.61372 | 21517 ft | 384 kts | 109° |
| 2026-05-04 08:42 | 33.36218 | -113.58275 | 21274 ft | 382 kts | 109° |
| 2026-05-04 08:43 | 33.35593 | -113.55195 | 21000 ft | 380 kts | 109° |
| 2026-05-04 08:43 | 33.34970 | -113.52137 | 20737 ft | 378 kts | 109° |
| 2026-05-04 08:43 | 33.34347 | -113.49093 | 20482 ft | 376 kts | 109° |
| 2026-05-04 08:43 | 33.33726 | -113.46067 | 20215 ft | 374 kts | 109° |
| 2026-05-04 08:44 | 33.33141 | -113.43044 | 19852 ft | 372 kts | 107° |
| 2026-05-04 08:44 | 33.32607 | -113.40021 | 19608 ft | 370 kts | 106° |
| 2026-05-04 08:46 | 33.29150 | -113.19271 | 17965 ft | 358 kts | 104° |
| 2026-05-04 08:46 | 33.28730 | -113.16348 | 17703 ft | 356 kts | 104° |
| 2026-05-04 08:46 | 33.28329 | -113.13444 | 17443 ft | 353 kts | 103° |
| 2026-05-04 08:46 | 33.27931 | -113.10557 | 17177 ft | 351 kts | 104° |
| 2026-05-04 08:47 | 33.27553 | -113.07688 | 16920 ft | 349 kts | 100° |
| 2026-05-04 08:47 | 33.27485 | -113.04786 | 16657 ft | 351 kts | 91° |
| 2026-05-04 08:47 | 33.27570 | -113.01876 | 16400 ft | 349 kts | 91° |
| 2026-05-04 08:47 | 33.27644 | -112.98988 | 16156 ft | 347 kts | 92° |
| 2026-05-04 08:48 | 33.27714 | -112.96116 | 15914 ft | 344 kts | 92° |
| 2026-05-04 08:48 | 33.27783 | -112.93264 | 15674 ft | 342 kts | 92° |
| 2026-05-04 08:48 | 33.27852 | -112.90431 | 15425 ft | 340 kts | 92° |
| 2026-05-04 08:48 | 33.27920 | -112.87619 | 15185 ft | 338 kts | 92° |
| 2026-05-04 08:49 | 33.27987 | -112.84822 | 14946 ft | 335 kts | 92° |
| 2026-05-04 08:50 | 33.29352 | -112.68150 | 14002 ft | 362 kts | 87° |
| 2026-05-04 08:50 | 33.29648 | -112.65147 | 13933 ft | 366 kts | 87° |
| 2026-05-04 08:51 | 33.29938 | -112.62124 | 13864 ft | 365 kts | 87° |
| 2026-05-04 08:51 | 33.30224 | -112.59108 | 13795 ft | 365 kts | 87° |
| 2026-05-04 08:51 | 33.30504 | -112.56109 | 13602 ft | 359 kts | 88° |
| 2026-05-04 08:51 | 33.30774 | -112.53177 | 13340 ft | 350 kts | 88° |
| 2026-05-04 08:52 | 33.31036 | -112.50322 | 13155 ft | 340 kts | 88° |
| 2026-05-04 08:52 | 33.31293 | -112.47553 | 13088 ft | 330 kts | 88° |
| 2026-05-04 08:52 | 33.31544 | -112.44853 | 12821 ft | 325 kts | 88° |
| 2026-05-04 08:52 | 33.31790 | -112.42176 | 12494 ft | 323 kts | 88° |
| 2026-05-04 08:53 | 33.32032 | -112.39519 | 12160 ft | 320 kts | 88° |
| 2026-05-04 08:54 | 33.33660 | -112.21542 | 9844 ft | 301 kts | 88° |
| 2026-05-04 08:55 | 33.33887 | -112.19065 | 9523 ft | 298 kts | 88° |
| 2026-05-04 08:55 | 33.34107 | -112.16635 | 9354 ft | 289 kts | 88° |
| 2026-05-04 08:55 | 33.34319 | -112.14289 | 9246 ft | 278 kts | 88° |
| 2026-05-04 08:55 | 33.34523 | -112.12034 | 9126 ft | 267 kts | 87° |
| 2026-05-04 08:57 | 33.34621 | -111.97817 | 7534 ft | 235 kts | 95° |
| 2026-05-04 09:01 | 33.42069 | -111.79905 | 4009 ft | 220 kts | 304° |
| 2026-05-04 09:01 | 33.42723 | -111.81525 | 3975 ft | 215 kts | 280° |
| 2026-05-04 09:01 | 33.42863 | -111.83274 | 3778 ft | 211 kts | 265° |
| 2026-05-04 09:01 | 33.42864 | -111.85040 | 3541 ft | 212 kts | 265° |
| 2026-05-04 09:02 | 33.42866 | -111.86784 | 3276 ft | 208 kts | 267° |
| 2026-05-04 09:02 | 33.42869 | -111.88497 | 2991 ft | 202 kts | 265° |
| 2026-05-04 09:02 | 33.42873 | -111.90119 | 2743 ft | 189 kts | 266° |
| 2026-05-04 09:02 | 33.42876 | -111.91640 | 2505 ft | 177 kts | 264° |
| 2026-05-04 09:03 | 33.42878 | -111.93078 | 2298 ft | 171 kts | 263° |
| 2026-05-04 09:03 | 33.42880 | -111.94469 | 2093 ft | 162 kts | 264° |
| 2026-05-04 09:03 | 33.42882 | -111.95818 | 1929 ft | 162 kts | 264° |
| 2026-05-04 09:03 | 33.42884 | -111.97186 | 1726 ft | 167 kts | 265° |
| 2026-05-04 09:04 | 33.42886 | -111.98569 | 1496 ft | 162 kts | 269° |
| 2026-05-04 09:04 | 33.42882 | -111.99883 | 1260 ft | 155 kts | 268° |
| 2026-05-04 09:04 | 33.42866 | -112.01090 | 1176 ft | 120 kts | 269° |
| 2026-05-04 09:04 | 33.42875 | -112.01780 | 1173 ft | 60 kts | 271° |
| 2026-05-04 09:05 | 33.42892 | -112.02038 | 1169 ft | 23 kts | 281° |
| 2026-05-04 09:05 | 33.42969 | -112.02157 | 1172 ft | 5 kts | 30° |
| 2026-05-04 09:05 | 33.42998 | -112.02008 | 1178 ft | 34 kts | 88° |
| 2026-05-04 09:05 | 33.42998 | -112.01712 | 1175 ft | 35 kts | 85° |
| 2026-05-04 09:06 | 33.43120 | -112.01580 | 1166 ft | 20 kts | 345° |